ADDS METAR Data INFO
IDs: Format: Raw Decoded Include TAF

Data at: 0255 UTC 21 Jan 2018

KROC 210154Z 26011KT 10SM FEW200 SCT250 02/M02 A3002 RMK AO2 SLP174 T00221017
KROC 210054Z 25010KT 10SM FEW200 SCT240 02/M02 A3000 RMK AO2 SLP166 T00221017
KROC 202354Z COR 26012KT 10SM SCT180 BKN240 03/M02 A2999 RMK AO2 SLP164 4/003 T00281017 10056 20022 51026
KROC 202254Z 26014G22KT 10SM SCT170 BKN240 03/M02 A2998 RMK AO2 PK WND 27026/2203 SLP159 T00331017
KROC 202154Z 26013KT 10SM SCT180 BKN240 04/M02 A2995 RMK AO2 PK WND 27027/2055 SLP148 T00391022
KROC 202054Z 27020G28KT 10SM FEW140 SCT180 BKN240 05/M02 A2992 RMK AO2 PK WND 28032/2022 SLP138 T00501022 53013
KROC 201954Z 27019G30KT 10SM FEW160 BKN200 BKN260 05/M02 A2989 RMK AO2 PK WND 28033/1930 SLP128 T00501022
KROC 201854Z 27020G32KT 10SM SCT170 BKN240 05/M02 A2988 RMK AO2 PK WND 28032/1756 SLP125 T00501022
KROC 201754Z 28020G35KT 10SM FEW140 BKN240 06/M02 A2988 RMK AO2 PK WND 26035/1749 SLP123 4/004 933006 T00561022 10056 20044 51018
KROC 201654Z 27018G29KT 10SM FEW200 BKN240 06/M03 A2986 RMK AO2 PK WND 29037/1624 SLP118 T00561028
KROC 201554Z 26023G31KT 10SM SCT180 BKN240 06/M03 A2985 RMK AO2 PK WND 27037/1525 SLP115 T00561028
KROC 201454Z 26022G31KT 10SM FEW180 BKN250 05/M03 A2982 RMK AO2 PK WND 26037/1429 SLP106 T00501028 51022
KROC 201354Z 26022G33KT 10SM BKN250 04/M03 A2982 RMK AO2 PK WND 27034/1327 SLP104 T00441028
KROC 201254Z 27020G32KT 10SM BKN250 04/M03 A2979 RMK AO2 PK WND 28037/1200 SLP095 T00441033
KROC 201154Z COR 27016G34KT 10SM BKN250 05/M03 A2976 RMK AO2 PK WND 27038/1111 SLP084 T00501033 10056 20044 53021 4/004
KROC 201054Z 26021G32KT 10SM BKN250 05/M04 A2973 RMK AO2 PK WND 27032/1046 SLP074 T00501039
KROC 200954Z COR 26019G26KT 10SM BKN250 04/M05 A2971 RMK AO2 PK WND 26031/0911 SLP069 T00441050
KROC 200854Z 26026G32KT 10SM BKN250 04/M05 A2969 RMK AO2 PK WND 25032/0853 SLP062 T00441050 50006
KROC 200754Z 25019G28KT 10SM FEW150 BKN250 05/M05 A2970 RMK AO2 PK WND 25029/0736 SLP064 T00501050
KROC 200654Z 24020KT 10SM FEW150 BKN250 05/M05 A2968 RMK AO2 PK WND 23030/0642 SLP059 T00501050
KROC 200554Z COR 24017G26KT 10SM FEW150 BKN220 05/M05 A2968 RMK AO2 PK WND 24027/0500 SLP057 T00501050 10050 20000 58025 4/005
KROC 200454Z 23018KT 10SM FEW140 BKN200 05/M05 A2971 RMK AO2 PK WND 25026/0421 SLP068 T00501050 400501044
KROC 200354Z 24018KT 10SM SCT140 OVC180 05/M05 A2974 RMK AO2 SLP078 T00501050
KROC 200254Z 21011G20KT 10SM SCT140 BKN180 03/M06 A2975 RMK AO2 SLP082 T00331056 58022
KROC 200154Z 21007KT 10SM CLR 02/M06 A2979 RMK AO2 SLP097 T00221056
KROC 200054Z 24010KT 10SM BKN180 02/M06 A2980 RMK AO2 SLP099 T00171056
KROC 192354Z 23006KT 10SM BKN200 00/M06 A2982 RMK AO2 SLP106 4/006 T00001061 10028 20000 56012
KROC 192254Z 26003KT 10SM FEW150 BKN200 02/M06 A2983 RMK AO2 SLP112 T00171061
KROC 192154Z 21007KT 10SM FEW180 BKN250 02/M07 A2982 RMK AO2 SLP108 T00221067
KROC 192054Z 21007KT 10SM SCT250 02/M07 A2985 RMK AO2 SLP117 T00221067 58016
KROC 191954Z 24012KT 10SM FEW250 02/M07 A2987 RMK AO2 SLP123 T00171072
KROC 191854Z 25017KT 10SM FEW150 FEW250 01/M07 A2988 RMK AO2 SLP127 T00111072
KROC 191754Z 25013KT 10SM FEW150 SCT250 01/M07 A2990 RMK AO2 SLP133 4/006 933010 T00061072 10006 21017 58019
KROC 191654Z 27018G23KT 10SM FEW150 SCT250 00/M08 A2993 RMK AO2 PK WND 25027/1644 SLP144 T00001078
KROC 191554Z 26018G24KT 10SM FEW032 FEW150 SCT250 M01/M08 A2995 RMK AO2 SLP153 T10061078